createdAt,value
2018-12-12T00:00:27.004Z,1014.3
2018-12-12T00:01:07.561Z,1014.31
2018-12-12T00:01:48.121Z,1014.33
2018-12-12T00:02:28.671Z,1014.29
2018-12-12T00:03:09.235Z,1014.3
2018-12-12T00:03:49.797Z,1014.32
2018-12-12T00:04:30.359Z,1014.38
2018-12-12T00:05:10.915Z,1014.36
2018-12-12T00:05:51.470Z,1014.33
2018-12-12T00:06:32.032Z,1014.31
2018-12-12T00:07:12.597Z,1014.27
2018-12-12T00:07:53.147Z,1014.31
2018-12-12T00:08:33.803Z,1014.32
2018-12-12T00:09:14.355Z,1014.36
2018-12-12T00:09:54.909Z,1014.29
2018-12-12T00:10:35.464Z,1014.35
2018-12-12T00:11:16.020Z,1014.31
2018-12-12T00:11:56.580Z,1014.29
2018-12-12T00:12:37.134Z,1014.3
2018-12-12T00:13:17.705Z,1014.32
2018-12-12T00:13:58.271Z,1014.29
2018-12-12T00:14:38.829Z,1014.3
2018-12-12T00:15:19.402Z,1014.27
2018-12-12T00:15:59.990Z,1014.26
2018-12-12T00:16:40.602Z,1014.26
2018-12-12T00:17:21.186Z,1014.24
2018-12-12T00:18:01.768Z,1014.26
2018-12-12T00:18:42.319Z,1014.23
2018-12-12T00:19:22.884Z,1014.28
2018-12-12T00:20:03.458Z,1014.23
2018-12-12T00:20:44.002Z,1014.21
2018-12-12T00:21:24.560Z,1014.21
2018-12-12T00:22:05.107Z,1014.22
2018-12-12T00:22:45.689Z,1014.28
2018-12-12T00:23:26.250Z,1014.26
2018-12-12T00:24:06.816Z,1014.31
2018-12-12T00:24:47.377Z,1014.27
2018-12-12T00:25:27.952Z,1014.29
2018-12-12T00:26:08.518Z,1014.28
2018-12-12T00:26:49.074Z,1014.32
2018-12-12T00:27:29.629Z,1014.29
2018-12-12T00:28:10.182Z,1014.26
2018-12-12T00:28:50.764Z,1014.31
2018-12-12T00:29:31.333Z,1014.28
2018-12-12T00:30:11.889Z,1014.3
2018-12-12T00:30:52.450Z,1014.32
2018-12-12T00:31:33.029Z,1014.3
2018-12-12T00:32:13.592Z,1014.34
2018-12-12T00:32:54.151Z,1014.33
2018-12-12T00:33:34.705Z,1014.3
2018-12-12T00:34:15.255Z,1014.3
2018-12-12T00:34:55.804Z,1014.29
2018-12-12T00:35:36.362Z,1014.3
2018-12-12T00:36:16.920Z,1014.33
2018-12-12T00:36:57.477Z,1014.33
2018-12-12T00:37:38.031Z,1014.3
2018-12-12T00:38:18.580Z,1014.31
2018-12-12T00:38:59.144Z,1014.32
2018-12-12T00:39:39.704Z,1014.39
2018-12-12T00:40:20.258Z,1014.34
2018-12-12T00:41:00.834Z,1014.39
2018-12-12T00:41:41.397Z,1014.41
2018-12-12T00:42:21.954Z,1014.38
2018-12-12T00:43:02.512Z,1014.42
2018-12-12T00:43:43.064Z,1014.43
2018-12-12T00:44:23.623Z,1014.39
2018-12-12T00:45:04.173Z,1014.4
2018-12-12T00:45:44.725Z,1014.38
2018-12-12T00:46:25.279Z,1014.41
2018-12-12T00:47:05.835Z,1014.4
2018-12-12T00:47:46.394Z,1014.44
2018-12-12T00:48:26.955Z,1014.45
2018-12-12T00:49:07.521Z,1014.41
2018-12-12T00:49:48.100Z,1014.45
2018-12-12T00:50:28.674Z,1014.41
2018-12-12T00:51:09.235Z,1014.49
2018-12-12T00:51:49.821Z,1014.46
2018-12-12T00:52:30.387Z,1014.42
2018-12-12T00:53:10.960Z,1014.41
2018-12-12T00:53:51.517Z,1014.49
2018-12-12T00:54:32.078Z,1014.51
2018-12-12T00:55:12.617Z,1014.45
2018-12-12T00:55:53.188Z,1014.41
2018-12-12T00:56:33.740Z,1014.47
2018-12-12T00:57:14.316Z,1014.49
2018-12-12T00:57:54.872Z,1014.54
2018-12-12T00:58:35.427Z,1014.56
2018-12-12T00:59:15.986Z,1014.54
2018-12-12T00:59:56.550Z,1014.5
2018-12-12T01:00:37.110Z,1014.53
2018-12-12T01:01:17.673Z,1014.52
2018-12-12T01:01:58.219Z,1014.52
2018-12-12T01:02:38.785Z,1014.5
2018-12-12T01:03:19.337Z,1014.56
2018-12-12T01:03:59.898Z,1014.58
2018-12-12T01:04:40.477Z,1014.53
2018-12-12T01:05:21.032Z,1014.59
2018-12-12T01:06:01.585Z,1014.52
2018-12-12T01:06:42.153Z,1014.52
2018-12-12T01:07:22.706Z,1014.54
2018-12-12T01:08:03.266Z,1014.62
2018-12-12T01:08:43.820Z,1014.59
2018-12-12T01:09:24.372Z,1014.6
2018-12-12T01:10:04.948Z,1014.63
2018-12-12T01:10:45.489Z,1014.63
2018-12-12T01:11:26.049Z,1014.54
2018-12-12T01:12:06.601Z,1014.59
2018-12-12T01:12:47.149Z,1014.6
2018-12-12T01:13:27.729Z,1014.62
2018-12-12T01:14:08.284Z,1014.6
2018-12-12T01:14:48.850Z,1014.61
2018-12-12T01:15:29.415Z,1014.65
2018-12-12T01:16:09.993Z,1014.63
2018-12-12T01:16:50.559Z,1014.6
2018-12-12T01:17:31.118Z,1014.66
2018-12-12T01:18:11.663Z,1014.6
2018-12-12T01:18:52.217Z,1014.64
2018-12-12T01:19:32.769Z,1014.67
2018-12-12T01:20:13.354Z,1014.67
2018-12-12T01:20:53.911Z,1014.67
2018-12-12T01:21:34.463Z,1014.67
2018-12-12T01:22:15.028Z,1014.72
2018-12-12T01:22:55.591Z,1014.71
2018-12-12T01:23:36.143Z,1014.68
2018-12-12T01:24:16.698Z,1014.71
2018-12-12T01:24:57.262Z,1014.74
2018-12-12T01:25:37.825Z,1014.73
2018-12-12T01:26:18.377Z,1014.78
2018-12-12T01:26:58.927Z,1014.76
2018-12-12T01:27:39.494Z,1014.74
2018-12-12T01:28:20.059Z,1014.8
2018-12-12T01:29:00.623Z,1014.81
2018-12-12T01:29:41.204Z,1014.81
2018-12-12T01:30:21.827Z,1014.83
2018-12-12T01:31:02.392Z,1014.85
2018-12-12T01:31:42.959Z,1014.82
2018-12-12T01:32:23.532Z,1014.87
2018-12-12T01:33:04.086Z,1014.86
2018-12-12T01:33:44.678Z,1014.86
2018-12-12T01:34:25.275Z,1014.82
2018-12-12T01:35:05.838Z,1014.82
2018-12-12T01:35:46.469Z,1014.81
2018-12-12T01:36:27.034Z,1014.84
2018-12-12T01:37:07.577Z,1014.81
2018-12-12T01:37:48.247Z,1014.86
2018-12-12T01:38:28.729Z,1014.9
2018-12-12T01:39:09.298Z,1014.87
2018-12-12T01:39:49.860Z,1014.91
2018-12-12T01:40:30.417Z,1014.92
2018-12-12T01:41:10.970Z,1014.83
2018-12-12T01:41:51.526Z,1014.92
2018-12-12T01:42:32.094Z,1014.86
2018-12-12T01:43:12.644Z,1014.87
2018-12-12T01:43:53.207Z,1014.87
2018-12-12T01:44:33.779Z,1014.85
2018-12-12T01:45:14.342Z,1014.82
2018-12-12T01:45:54.906Z,1014.84
2018-12-12T01:46:35.484Z,1014.84
2018-12-12T01:47:16.053Z,1014.9
2018-12-12T01:47:56.624Z,1014.86
2018-12-12T01:48:37.182Z,1014.87
2018-12-12T01:49:17.742Z,1014.92
2018-12-12T01:49:58.301Z,1014.85
2018-12-12T01:50:38.857Z,1014.94
2018-12-12T01:51:19.416Z,1014.87
2018-12-12T01:51:59.975Z,1014.92
2018-12-12T01:52:40.535Z,1014.88
2018-12-12T01:53:21.093Z,1014.94
2018-12-12T01:54:01.655Z,1014.92
2018-12-12T01:54:42.212Z,1014.94
2018-12-12T01:55:22.799Z,1014.94
2018-12-12T01:56:03.355Z,1014.97
2018-12-12T01:56:43.929Z,1014.97
2018-12-12T01:57:24.514Z,1014.95
2018-12-12T01:58:05.067Z,1015.01
2018-12-12T01:58:45.650Z,1014.98
2018-12-12T01:59:26.222Z,1014.97
2018-12-12T02:00:06.770Z,1014.98
2018-12-12T02:00:47.333Z,1014.99
2018-12-12T02:01:27.896Z,1014.97
2018-12-12T02:02:08.473Z,1015
2018-12-12T02:02:49.018Z,1014.99
2018-12-12T02:03:29.663Z,1014.96
2018-12-12T02:04:10.207Z,1014.98
2018-12-12T02:04:50.767Z,1014.99
2018-12-12T02:05:31.334Z,1014.99
2018-12-12T02:06:11.888Z,1015
2018-12-12T02:06:52.459Z,1015.03
2018-12-12T02:07:33.030Z,1015.02
2018-12-12T02:08:13.603Z,1015.02
2018-12-12T02:08:54.171Z,1015.03
2018-12-12T02:09:34.715Z,1015.04
2018-12-12T02:10:15.272Z,1015.1
2018-12-12T02:10:55.842Z,1015.04
2018-12-12T02:11:36.415Z,1015.1
2018-12-12T02:12:16.983Z,1015.09
2018-12-12T02:12:57.546Z,1015.08
2018-12-12T02:13:38.108Z,1015.11
2018-12-12T02:14:18.667Z,1015.05
2018-12-12T02:14:59.229Z,1015.08
2018-12-12T02:15:39.789Z,1015.1
2018-12-12T02:16:20.344Z,1015.09
2018-12-12T02:17:00.919Z,1015.13
2018-12-12T02:17:41.479Z,1015.1
2018-12-12T02:18:22.049Z,1015.07
2018-12-12T02:19:02.621Z,1015.12
2018-12-12T02:19:43.167Z,1015.14
2018-12-12T02:20:23.729Z,1015.11
2018-12-12T02:21:04.283Z,1015.12
2018-12-12T02:21:44.852Z,1015.1
2018-12-12T02:22:25.785Z,1015.15
2018-12-12T02:23:06.394Z,1015.16
2018-12-12T02:23:46.944Z,1015.13
2018-12-12T02:24:27.527Z,1015.13
2018-12-12T02:25:08.070Z,1015.13
2018-12-12T02:25:48.650Z,1015.11
2018-12-12T02:26:29.203Z,1015.11
2018-12-12T02:27:09.748Z,1015.12
2018-12-12T02:27:50.316Z,1015.08
2018-12-12T02:28:30.881Z,1015.11
2018-12-12T02:29:11.426Z,1015.13
2018-12-12T02:29:51.967Z,1015.08
2018-12-12T02:30:32.522Z,1015.12
2018-12-12T02:31:13.076Z,1015.14
2018-12-12T02:31:53.626Z,1015.1
2018-12-12T02:32:34.174Z,1015.13
2018-12-12T02:33:14.736Z,1015.12
2018-12-12T02:33:55.289Z,1015.17
2018-12-12T02:34:35.869Z,1015.17
2018-12-12T02:35:16.448Z,1015.15
2018-12-12T02:35:57.000Z,1015.17
2018-12-12T02:36:37.562Z,1015.2
2018-12-12T02:37:18.138Z,1015.21
2018-12-12T02:37:58.718Z,1015.23
2018-12-12T02:38:39.292Z,1015.23
2018-12-12T02:39:19.839Z,1015.25
2018-12-12T02:40:00.404Z,1015.28
2018-12-12T02:40:40.976Z,1015.27
2018-12-12T02:41:21.540Z,1015.24
2018-12-12T02:42:02.093Z,1015.31
2018-12-12T02:42:42.637Z,1015.3
2018-12-12T02:43:23.186Z,1015.26
2018-12-12T02:44:03.738Z,1015.31
2018-12-12T02:44:44.292Z,1015.33
2018-12-12T02:45:24.849Z,1015.32
2018-12-12T02:46:05.402Z,1015.32
2018-12-12T02:46:45.971Z,1015.33
2018-12-12T02:47:26.536Z,1015.35
2018-12-12T02:48:07.121Z,1015.35
2018-12-12T02:48:47.769Z,1015.39
2018-12-12T02:49:28.262Z,1015.38
2018-12-12T02:50:08.828Z,1015.35
2018-12-12T02:50:49.382Z,1015.39
2018-12-12T02:51:29.946Z,1015.39
2018-12-12T02:52:10.507Z,1015.4
2018-12-12T02:52:51.067Z,1015.43
2018-12-12T02:53:31.634Z,1015.43
2018-12-12T02:54:12.186Z,1015.46
2018-12-12T02:54:52.748Z,1015.44
2018-12-12T02:55:33.303Z,1015.43
2018-12-12T02:56:13.858Z,1015.46
2018-12-12T02:56:54.408Z,1015.5
2018-12-12T02:57:34.954Z,1015.45
2018-12-12T02:58:15.504Z,1015.46
2018-12-12T02:58:56.056Z,1015.49
2018-12-12T02:59:36.610Z,1015.47
2018-12-12T03:00:17.163Z,1015.46
2018-12-12T03:00:57.718Z,1015.48
2018-12-12T03:01:38.257Z,1015.45
2018-12-12T03:02:18.816Z,1015.44
2018-12-12T03:02:59.411Z,1015.46
2018-12-12T03:03:39.962Z,1015.49
2018-12-12T03:04:20.520Z,1015.45
2018-12-12T03:05:01.080Z,1015.46
2018-12-12T03:05:41.642Z,1015.45
2018-12-12T03:06:22.207Z,1015.42
2018-12-12T03:07:02.760Z,1015.44
2018-12-12T03:07:43.317Z,1015.48
2018-12-12T03:08:23.898Z,1015.45
2018-12-12T03:09:04.459Z,1015.46
2018-12-12T03:09:45.015Z,1015.47
2018-12-12T03:10:25.569Z,1015.51
2018-12-12T03:11:06.170Z,1015.48
2018-12-12T03:11:46.714Z,1015.53
2018-12-12T03:12:27.263Z,1015.49
2018-12-12T03:13:07.823Z,1015.51
2018-12-12T03:13:48.376Z,1015.45
2018-12-12T03:14:28.930Z,1015.5
2018-12-12T03:15:09.485Z,1015.51
2018-12-12T03:15:50.050Z,1015.51
2018-12-12T03:16:30.618Z,1015.48
2018-12-12T03:17:11.177Z,1015.51
2018-12-12T03:17:51.740Z,1015.49
2018-12-12T03:18:32.308Z,1015.52
2018-12-12T03:19:12.858Z,1015.54
2018-12-12T03:19:53.408Z,1015.53
2018-12-12T03:20:33.967Z,1015.52
2018-12-12T03:21:14.538Z,1015.53
2018-12-12T03:21:55.108Z,1015.58
2018-12-12T03:22:35.812Z,1015.52
2018-12-12T03:23:16.366Z,1015.56
2018-12-12T03:23:56.928Z,1015.59
2018-12-12T03:24:37.523Z,1015.61
2018-12-12T03:25:18.096Z,1015.62
2018-12-12T03:25:58.652Z,1015.6
2018-12-12T03:26:39.240Z,1015.63
2018-12-12T03:27:19.793Z,1015.61
2018-12-12T03:28:00.350Z,1015.62
2018-12-12T03:28:40.942Z,1015.64
2018-12-12T03:29:21.497Z,1015.66
2018-12-12T03:30:02.041Z,1015.68
2018-12-12T03:30:42.606Z,1015.7
2018-12-12T03:31:23.164Z,1015.7
2018-12-12T03:32:03.720Z,1015.72
2018-12-12T03:32:44.272Z,1015.72
2018-12-12T03:33:24.882Z,1015.73
2018-12-12T03:34:05.458Z,1015.73
2018-12-12T03:34:46.015Z,1015.77
2018-12-12T03:35:26.574Z,1015.76
2018-12-12T03:36:07.135Z,1015.77
2018-12-12T03:36:47.689Z,1015.75
2018-12-12T03:37:28.251Z,1015.82
2018-12-12T03:38:08.801Z,1015.75
2018-12-12T03:38:49.348Z,1015.81
2018-12-12T03:39:29.905Z,1015.79
2018-12-12T03:40:10.463Z,1015.78
2018-12-12T03:40:51.004Z,1015.78
2018-12-12T03:41:31.582Z,1015.82
2018-12-12T03:42:12.134Z,1015.83
2018-12-12T03:42:52.705Z,1015.83
2018-12-12T03:43:33.270Z,1015.83
2018-12-12T03:44:13.820Z,1015.83
2018-12-12T03:44:54.376Z,1015.84
2018-12-12T03:45:34.938Z,1015.88
2018-12-12T03:46:15.497Z,1015.82
2018-12-12T03:46:56.059Z,1015.86
2018-12-12T03:47:36.615Z,1015.86
2018-12-12T03:48:17.168Z,1015.9
2018-12-12T03:48:57.712Z,1015.88
2018-12-12T03:49:38.270Z,1015.88
2018-12-12T03:50:18.828Z,1015.89
2018-12-12T03:50:59.375Z,1015.86
2018-12-12T03:51:39.948Z,1015.9
2018-12-12T03:52:20.516Z,1015.9
2018-12-12T03:53:01.074Z,1015.92
2018-12-12T03:53:41.616Z,1015.9
2018-12-12T03:54:22.179Z,1015.94
2018-12-12T03:55:02.749Z,1015.94
2018-12-12T03:55:43.295Z,1015.93
2018-12-12T03:56:23.853Z,1015.95
2018-12-12T03:57:04.428Z,1015.92
2018-12-12T03:57:44.980Z,1015.92
2018-12-12T03:58:25.530Z,1015.92
2018-12-12T03:59:06.089Z,1015.96
2018-12-12T03:59:46.668Z,1015.94
2018-12-12T04:00:27.209Z,1015.98
2018-12-12T04:01:07.767Z,1016.01
2018-12-12T04:01:48.331Z,1016
2018-12-12T04:02:28.897Z,1016.01
2018-12-12T04:03:09.465Z,1016
2018-12-12T04:03:50.019Z,1016.03
2018-12-12T04:04:30.578Z,1016.06
2018-12-12T04:05:11.139Z,1016.04
2018-12-12T04:05:51.701Z,1016.07
2018-12-12T04:06:32.251Z,1016.12
2018-12-12T04:07:12.812Z,1016.11
2018-12-12T04:07:53.373Z,1016.1
2018-12-12T04:08:33.922Z,1016.11
2018-12-12T04:09:14.467Z,1016.13
2018-12-12T04:09:55.023Z,1016.1
2018-12-12T04:10:35.581Z,1016.1
2018-12-12T04:11:16.133Z,1016.11
2018-12-12T04:11:56.698Z,1016.15
2018-12-12T04:12:37.297Z,1016.18
2018-12-12T04:13:17.878Z,1016.18
2018-12-12T04:13:58.442Z,1016.15
2018-12-12T04:14:38.999Z,1016.11
2018-12-12T04:15:19.556Z,1016.08
2018-12-12T04:16:00.110Z,1016.12
2018-12-12T04:16:40.670Z,1016.12
2018-12-12T04:17:21.225Z,1016.17
2018-12-12T04:18:01.793Z,1016.13
2018-12-12T04:18:42.353Z,1016.15
2018-12-12T04:19:22.928Z,1016.16
2018-12-12T04:20:03.488Z,1016.21
2018-12-12T04:20:44.082Z,1016.18
2018-12-12T04:21:24.639Z,1016.2
2018-12-12T04:22:05.195Z,1016.19
2018-12-12T04:22:45.754Z,1016.24
2018-12-12T04:23:26.307Z,1016.25
2018-12-12T04:24:06.861Z,1016.23
2018-12-12T04:24:47.418Z,1016.3
2018-12-12T04:25:27.981Z,1016.3
2018-12-12T04:26:08.549Z,1016.28
2018-12-12T04:26:49.119Z,1016.28
2018-12-12T04:27:29.692Z,1016.3
2018-12-12T04:28:10.249Z,1016.31
2018-12-12T04:28:50.808Z,1016.35
2018-12-12T04:29:31.378Z,1016.34
2018-12-12T04:30:11.939Z,1016.37
2018-12-12T04:30:52.494Z,1016.3
2018-12-12T04:31:33.055Z,1016.3
2018-12-12T04:32:13.620Z,1016.33
2018-12-12T04:32:54.176Z,1016.34
2018-12-12T04:33:34.735Z,1016.41
2018-12-12T04:34:15.290Z,1016.39
2018-12-12T04:34:55.841Z,1016.36
2018-12-12T04:35:36.402Z,1016.39
2018-12-12T04:36:16.966Z,1016.33
2018-12-12T04:36:57.537Z,1016.32
2018-12-12T04:37:38.085Z,1016.34
2018-12-12T04:38:18.639Z,1016.37
2018-12-12T04:38:59.206Z,1016.37
2018-12-12T04:39:39.761Z,1016.32
2018-12-12T04:40:20.313Z,1016.36
2018-12-12T04:41:00.899Z,1016.33
2018-12-12T04:41:41.440Z,1016.33
2018-12-12T04:42:22.001Z,1016.34
2018-12-12T04:43:02.580Z,1016.32
2018-12-12T04:43:43.172Z,1016.32
2018-12-12T04:44:23.726Z,1016.33
2018-12-12T04:45:04.290Z,1016.37
2018-12-12T04:45:44.892Z,1016.36
2018-12-12T04:46:25.463Z,1016.4
2018-12-12T04:47:06.021Z,1016.31
2018-12-12T04:47:46.573Z,1016.37
2018-12-12T04:48:27.146Z,1016.3
2018-12-12T04:49:07.720Z,1016.32
2018-12-12T04:49:48.275Z,1016.33
2018-12-12T04:50:28.851Z,1016.34
2018-12-12T04:51:09.420Z,1016.38
2018-12-12T04:51:49.971Z,1016.42
2018-12-12T04:52:30.525Z,1016.39
2018-12-12T04:53:11.076Z,1016.34
2018-12-12T04:53:51.642Z,1016.4
2018-12-12T04:54:32.208Z,1016.39
2018-12-12T04:55:12.768Z,1016.44
2018-12-12T04:55:53.342Z,1016.4
2018-12-12T04:56:33.901Z,1016.43
2018-12-12T04:57:14.455Z,1016.43
2018-12-12T04:57:54.999Z,1016.44
2018-12-12T04:58:35.596Z,1016.49
2018-12-12T04:59:16.153Z,1016.51
2018-12-12T04:59:56.710Z,1016.48
2018-12-12T05:00:37.282Z,1016.44
2018-12-12T05:01:17.822Z,1016.44
2018-12-12T05:01:58.475Z,1016.52
2018-12-12T05:02:39.037Z,1016.49
2018-12-12T05:03:19.588Z,1016.54
2018-12-12T05:04:00.147Z,1016.5
2018-12-12T05:04:40.702Z,1016.5
2018-12-12T05:05:21.265Z,1016.57
2018-12-12T05:06:01.813Z,1016.51
2018-12-12T05:06:42.377Z,1016.56
2018-12-12T05:07:24.417Z,1016.55
2018-12-12T05:08:03.609Z,1016.55
2018-12-12T05:08:44.169Z,1016.52
2018-12-12T05:09:24.723Z,1016.48
2018-12-12T05:10:05.287Z,1016.57
2018-12-12T05:10:45.847Z,1016.56
2018-12-12T05:11:26.406Z,1016.55
2018-12-12T05:12:06.967Z,1016.59
2018-12-12T05:12:47.522Z,1016.6
2018-12-12T05:13:28.087Z,1016.58
2018-12-12T05:14:08.642Z,1016.59
2018-12-12T05:14:49.204Z,1016.58
2018-12-12T05:15:29.761Z,1016.6
2018-12-12T05:16:10.310Z,1016.61
2018-12-12T05:16:50.863Z,1016.64
2018-12-12T05:17:31.417Z,1016.6
2018-12-12T05:18:11.975Z,1016.66
2018-12-12T05:18:52.538Z,1016.6
2018-12-12T05:19:33.088Z,1016.63
2018-12-12T05:20:13.656Z,1016.62
2018-12-12T05:20:54.211Z,1016.58
2018-12-12T05:21:34.774Z,1016.64
2018-12-12T05:22:15.611Z,1016.63
2018-12-12T05:22:56.167Z,1016.63
2018-12-12T05:23:36.728Z,1016.66
2018-12-12T05:24:17.288Z,1016.66
2018-12-12T05:24:57.920Z,1016.72
2018-12-12T05:25:38.481Z,1016.69
2018-12-12T05:26:19.037Z,1016.65
2018-12-12T05:26:59.607Z,1016.68
2018-12-12T05:27:40.150Z,1016.61
2018-12-12T05:28:20.739Z,1016.67
2018-12-12T05:29:01.303Z,1016.67
2018-12-12T05:29:41.886Z,1016.67
2018-12-12T05:30:22.449Z,1016.74
2018-12-12T05:31:02.999Z,1016.68
2018-12-12T05:31:43.885Z,1016.69
2018-12-12T05:32:24.122Z,1016.71
2018-12-12T05:33:04.683Z,1016.75
2018-12-12T05:33:45.251Z,1016.74
2018-12-12T05:34:25.809Z,1016.79
2018-12-12T05:35:06.370Z,1016.77
2018-12-12T05:35:46.929Z,1016.81
2018-12-12T05:36:27.490Z,1016.77
2018-12-12T05:37:08.051Z,1016.78
2018-12-12T05:37:50.994Z,1016.77
2018-12-12T05:38:29.137Z,1016.8
2018-12-12T05:39:09.705Z,1016.81
2018-12-12T05:39:50.312Z,1016.83
2018-12-12T05:40:30.816Z,1016.81
2018-12-12T05:41:11.405Z,1016.84
2018-12-12T05:41:51.933Z,1016.83
2018-12-12T05:42:32.491Z,1016.89
2018-12-12T05:43:13.049Z,1016.85
2018-12-12T05:43:57.556Z,1016.84
2018-12-12T05:44:34.192Z,1016.84
2018-12-12T05:45:14.745Z,1016.84
2018-12-12T05:45:55.307Z,1016.87
2018-12-12T05:46:41.604Z,1016.88
2018-12-12T05:47:16.426Z,1016.87
2018-12-12T05:47:56.981Z,1016.87
2018-12-12T05:48:37.543Z,1016.91
2018-12-12T05:49:18.154Z,1016.87
2018-12-12T05:49:58.712Z,1016.87
2018-12-12T05:50:39.274Z,1016.88
2018-12-12T05:51:19.835Z,1016.87
2018-12-12T05:52:00.400Z,1016.92
2018-12-12T05:52:40.956Z,1016.9
2018-12-12T05:53:21.517Z,1016.9
2018-12-12T05:54:02.067Z,1016.9
2018-12-12T05:54:42.634Z,1016.87
2018-12-12T05:55:23.189Z,1016.9
2018-12-12T05:56:03.743Z,1016.9
2018-12-12T05:56:44.305Z,1016.89
2018-12-12T05:57:24.868Z,1016.9
2018-12-12T05:58:05.428Z,1016.84
2018-12-12T05:58:46.005Z,1016.89
2018-12-12T05:59:26.556Z,1016.91
2018-12-12T06:00:07.130Z,1016.86
2018-12-12T06:00:47.692Z,1016.9
2018-12-12T06:01:28.260Z,1016.9
2018-12-12T06:02:08.797Z,1016.96
2018-12-12T06:02:49.367Z,1016.92
2018-12-12T06:03:29.931Z,1016.96
2018-12-12T06:04:10.496Z,1016.99
2018-12-12T06:04:51.056Z,1016.96
2018-12-12T06:05:31.614Z,1016.95
2018-12-12T06:06:12.182Z,1016.89
2018-12-12T06:06:52.744Z,1017
2018-12-12T06:07:33.325Z,1016.96
2018-12-12T06:08:13.885Z,1016.95
2018-12-12T06:08:54.449Z,1016.96
2018-12-12T06:09:35.023Z,1016.97
2018-12-12T06:10:15.594Z,1017.02
2018-12-12T06:10:56.152Z,1017.02
2018-12-12T06:11:36.707Z,1017.03
2018-12-12T06:12:17.432Z,1017.04
2018-12-12T06:12:58.009Z,1017.08
2018-12-12T06:13:38.385Z,1017.08
2018-12-12T06:14:18.952Z,1017.13
2018-12-12T06:14:59.510Z,1017.11
2018-12-12T06:15:40.054Z,1017.1
2018-12-12T06:16:20.631Z,1017.11
2018-12-12T06:17:01.215Z,1017.13
2018-12-12T06:17:41.891Z,1017.15
2018-12-12T06:18:22.444Z,1017.17
2018-12-12T06:19:03.010Z,1017.17
2018-12-12T06:19:43.570Z,1017.17
2018-12-12T06:20:24.127Z,1017.25
2018-12-12T06:21:04.704Z,1017.21
2018-12-12T06:21:45.292Z,1017.19
2018-12-12T06:22:25.848Z,1017.17
2018-12-12T06:23:06.411Z,1017.18
2018-12-12T06:23:46.967Z,1017.19
2018-12-12T06:24:27.534Z,1017.16
2018-12-12T06:25:08.095Z,1017.16
2018-12-12T06:25:48.659Z,1017.16
2018-12-12T06:26:29.227Z,1017.14
2018-12-12T06:27:09.774Z,1017.2
2018-12-12T06:27:50.333Z,1017.17
2018-12-12T06:28:30.893Z,1017.2
2018-12-12T06:29:11.459Z,1017.15
2018-12-12T06:29:52.007Z,1017.16
2018-12-12T06:30:32.559Z,1017.17
2018-12-12T06:31:13.138Z,1017.14
2018-12-12T06:31:53.705Z,1017.18
2018-12-12T06:32:35.644Z,1017.19
2018-12-12T06:33:14.817Z,1017.2
2018-12-12T06:33:55.373Z,1017.21
2018-12-12T06:34:35.930Z,1017.22
2018-12-12T06:35:16.490Z,1017.24
2018-12-12T06:35:57.049Z,1017.26
2018-12-12T06:36:37.616Z,1017.23
2018-12-12T06:37:18.230Z,1017.26
2018-12-12T06:37:58.803Z,1017.24
2018-12-12T06:38:39.371Z,1017.27
2018-12-12T06:39:19.930Z,1017.28
2018-12-12T06:40:00.488Z,1017.25
2018-12-12T06:40:41.055Z,1017.29
2018-12-12T06:41:21.606Z,1017.27
2018-12-12T06:42:02.158Z,1017.31
2018-12-12T06:42:42.699Z,1017.3
2018-12-12T06:43:23.267Z,1017.31
2018-12-12T06:44:03.827Z,1017.37
2018-12-12T06:44:46.257Z,1017.35
2018-12-12T06:45:26.860Z,1017.33
2018-12-12T06:46:07.452Z,1017.4
2018-12-12T06:46:48.017Z,1017.41
2018-12-12T06:47:28.607Z,1017.4
2018-12-12T06:48:09.204Z,1017.37
2018-12-12T06:48:49.781Z,1017.39
2018-12-12T06:49:30.344Z,1017.43
2018-12-12T06:50:10.899Z,1017.45
2018-12-12T06:50:51.460Z,1017.45
2018-12-12T06:51:32.015Z,1017.45
2018-12-12T06:52:12.590Z,1017.49
2018-12-12T06:52:53.168Z,1017.48
2018-12-12T06:53:33.766Z,1017.51
2018-12-12T06:54:14.344Z,1017.5
2018-12-12T06:54:54.909Z,1017.5
2018-12-12T06:55:35.476Z,1017.53
2018-12-12T06:56:16.037Z,1017.55
2018-12-12T06:56:56.590Z,1017.55
2018-12-12T06:57:37.155Z,1017.53
2018-12-12T06:58:17.739Z,1017.55
2018-12-12T06:58:58.304Z,1017.56
2018-12-12T06:59:38.868Z,1017.57
2018-12-12T07:00:19.447Z,1017.57
2018-12-12T07:00:59.999Z,1017.63
2018-12-12T07:01:40.706Z,1017.61
2018-12-12T07:02:21.293Z,1017.63
2018-12-12T07:03:01.975Z,1017.63
2018-12-12T07:03:42.621Z,1017.64
2018-12-12T07:04:23.261Z,1017.63
2018-12-12T07:05:03.819Z,1017.67
2018-12-12T07:05:44.375Z,1017.65
2018-12-12T07:06:24.959Z,1017.67
2018-12-12T07:07:05.567Z,1017.67
2018-12-12T07:07:46.130Z,1017.64
2018-12-12T07:08:26.692Z,1017.64
2018-12-12T07:09:07.258Z,1017.68
2018-12-12T07:09:47.823Z,1017.71
2018-12-12T07:10:28.507Z,1017.68
2018-12-12T07:11:09.133Z,1017.74
2018-12-12T07:11:49.702Z,1017.71
2018-12-12T07:12:30.253Z,1017.65
2018-12-12T07:13:10.817Z,1017.7
2018-12-12T07:13:51.378Z,1017.72
2018-12-12T07:14:32.055Z,1017.72
2018-12-12T07:15:12.624Z,1017.74
2018-12-12T07:15:53.178Z,1017.73
2018-12-12T07:16:33.779Z,1017.74
2018-12-12T07:17:14.336Z,1017.73
2018-12-12T07:17:54.893Z,1017.76
2018-12-12T07:18:35.452Z,1017.79
2018-12-12T07:19:16.018Z,1017.82
2018-12-12T07:19:56.588Z,1017.83
2018-12-12T07:20:37.142Z,1017.79
2018-12-12T07:21:17.701Z,1017.78
2018-12-12T07:22:00.478Z,1017.8
2018-12-12T07:22:41.111Z,1017.8
2018-12-12T07:23:21.662Z,1017.79
2018-12-12T07:24:02.237Z,1017.81
2018-12-12T07:24:42.802Z,1017.77
2018-12-12T07:25:23.360Z,1017.77
2018-12-12T07:26:04.064Z,1017.78
2018-12-12T07:26:45.436Z,1017.79
2018-12-12T07:27:25.624Z,1017.8
2018-12-12T07:28:06.115Z,1017.83
2018-12-12T07:28:46.718Z,1017.83
2018-12-12T07:29:27.287Z,1017.88
2018-12-12T07:30:07.857Z,1017.86
2018-12-12T07:30:48.416Z,1017.88
2018-12-12T07:31:28.990Z,1017.89
2018-12-12T07:32:09.538Z,1017.9
2018-12-12T07:32:50.093Z,1017.92
2018-12-12T07:33:30.676Z,1017.91
2018-12-12T07:34:11.224Z,1017.92
2018-12-12T07:34:51.783Z,1017.9
2018-12-12T07:35:32.332Z,1017.94
2018-12-12T07:36:12.898Z,1017.9
2018-12-12T07:36:53.465Z,1017.9
2018-12-12T07:37:34.042Z,1017.93
2018-12-12T07:38:14.625Z,1017.89
2018-12-12T07:38:55.200Z,1017.96
2018-12-12T07:39:35.745Z,1017.96
2018-12-12T07:40:16.300Z,1017.94
2018-12-12T07:40:56.971Z,1017.98
2018-12-12T07:41:37.782Z,1017.98
2018-12-12T07:42:18.338Z,1018
2018-12-12T07:42:58.927Z,1018.02
2018-12-12T07:43:39.501Z,1017.99
2018-12-12T07:44:20.234Z,1017.98
2018-12-12T07:45:00.771Z,1017.94
2018-12-12T07:45:41.335Z,1017.96
2018-12-12T07:46:21.903Z,1017.99
2018-12-12T07:47:02.485Z,1018.01
2018-12-12T07:47:43.054Z,1018.03
2018-12-12T07:48:23.609Z,1018.02
2018-12-12T07:49:04.180Z,1018.05
2018-12-12T07:49:44.737Z,1018.02
2018-12-12T07:50:25.299Z,1018.02
2018-12-12T07:51:05.859Z,1018.06
2018-12-12T07:51:46.425Z,1018.07
2018-12-12T07:52:28.099Z,1018.04
2018-12-12T07:53:07.524Z,1018.12
2018-12-12T07:53:48.086Z,1018.14
2018-12-12T07:54:28.632Z,1018.14
2018-12-12T07:55:09.176Z,1018.17
2018-12-12T07:55:49.732Z,1018.16
2018-12-12T07:56:30.293Z,1018.17
2018-12-12T07:57:10.854Z,1018.15
2018-12-12T07:57:51.465Z,1018.17
2018-12-12T07:58:32.051Z,1018.14
2018-12-12T07:59:12.616Z,1018.15
2018-12-12T07:59:53.187Z,1018.2
2018-12-12T08:00:33.746Z,1018.16
2018-12-12T08:01:14.326Z,1018.2
2018-12-12T08:01:54.898Z,1018.23
2018-12-12T08:02:35.461Z,1018.21
2018-12-12T08:03:16.012Z,1018.21
2018-12-12T08:03:56.589Z,1018.22
2018-12-12T08:04:37.141Z,1018.19
2018-12-12T08:05:17.710Z,1018.23
2018-12-12T08:05:58.265Z,1018.2
2018-12-12T08:06:38.847Z,1018.22
2018-12-12T08:07:19.503Z,1018.23
2018-12-12T08:08:00.051Z,1018.15
2018-12-12T08:08:40.656Z,1018.24
2018-12-12T08:09:21.199Z,1018.19
2018-12-12T08:10:01.774Z,1018.21
2018-12-12T08:10:42.339Z,1018.22
2018-12-12T08:11:22.883Z,1018.25
2018-12-12T08:12:03.446Z,1018.25
2018-12-12T08:12:44.004Z,1018.25
2018-12-12T08:13:24.569Z,1018.24